KDSV/DSV METAR and TAF weather

Enter ICAO airport designator
Station Type Date Time Source
KDSV METAR 2020/01/18 03:54 UTC NOAA

KDSV 180354Z AUTO 16004KT 10SM CLR M11/M14 A3069 RMK AO2 SLP416 T11061139


Station Type Date Time Source
KDSV Decoded METAR 2020/01/18 03:54 UTC NOAA

DANSVILLE MUNICIPAL AIRPORT, NY, United States (KDSV) 42-34N 077-43W 198M
Jan 17, 2020 - 10:54 PM EST / 2020.01.18 0354 UTC
Wind: from the SSE (160 degrees) at 5 MPH (4 KT):0
Visibility: 10 mile(s):0
Sky conditions: clear
Temperature: 12.9 F (-10.6 C)
Windchill: 5 F (-15 C):1
Dew Point: 7.0 F (-13.9 C)
Relative Humidity: 76%
Pressure (altimeter): 30.69 in. Hg (1039 hPa)
ob: KDSV 180354Z AUTO 16004KT 10SM CLR M11/M14 A3069 RMK AO2 SLP416 T11061139
cycle: 4

Station Type Date Time Source
KDSV TAF UTC NOAA

Error!

Example: see airport list